createdAt,value
2022-09-12T00:00:19.159Z,1.11
2022-09-12T00:01:22.105Z,1.18
2022-09-12T00:02:24.914Z,1.65
2022-09-12T00:03:27.466Z,0.83
2022-09-12T00:04:30.964Z,1.13
2022-09-12T00:05:33.627Z,1.09
2022-09-12T00:06:36.195Z,0.95
2022-09-12T00:07:39.179Z,0.93
2022-09-12T00:08:41.894Z,1.15
2022-09-12T00:09:45.650Z,1.15
2022-09-12T00:10:48.311Z,0.91
2022-09-12T00:11:51.186Z,1.15
2022-09-12T00:12:53.749Z,1.84
2022-09-12T00:13:56.314Z,2.59
2022-09-12T00:14:59.702Z,1.62
2022-09-12T00:16:02.373Z,1.05
2022-09-12T00:17:05.072Z,1.42
2022-09-12T00:18:07.707Z,1.44
2022-09-12T00:19:10.278Z,0.89
2022-09-12T00:20:13.561Z,1.04
2022-09-12T00:21:16.334Z,1.03
2022-09-12T00:22:19.008Z,0.83
2022-09-12T00:23:21.678Z,1.13
2022-09-12T00:24:24.350Z,1.12
2022-09-12T00:25:27.634Z,3.08
2022-09-12T00:26:33.367Z,3.36
2022-09-12T00:27:36.041Z,1.08
2022-09-12T00:28:38.708Z,1.03
2022-09-12T00:29:41.585Z,1.28
2022-09-12T00:30:44.463Z,1.09
2022-09-12T00:31:47.478Z,1.32
2022-09-12T00:32:50.208Z,1.19
2022-09-12T00:33:52.888Z,1.05
2022-09-12T00:34:55.648Z,0.99
2022-09-12T00:35:58.935Z,0.79
2022-09-12T00:37:02.124Z,0.98
2022-09-12T00:38:05.099Z,1.45
2022-09-12T00:39:08.066Z,2.41
2022-09-12T00:40:11.236Z,0.88
2022-09-12T00:41:14.637Z,1.11
2022-09-12T00:42:17.927Z,1.28
2022-09-12T00:43:21.008Z,1.38
2022-09-12T00:44:23.984Z,1.20
2022-09-12T00:45:27.756Z,1.08
2022-09-12T00:46:31.066Z,1.22
2022-09-12T00:47:33.945Z,1.19
2022-09-12T00:48:36.812Z,1.15
2022-09-12T00:49:40.088Z,1.53
2022-09-12T00:50:42.772Z,1.18
2022-09-12T00:51:45.663Z,2.27
2022-09-12T00:52:48.310Z,0.88
2022-09-12T00:53:51.591Z,1.02
2022-09-12T00:54:54.774Z,1.09
2022-09-12T00:55:57.852Z,0.93
2022-09-12T00:57:00.728Z,1.76
2022-09-12T00:58:03.598Z,1.21
2022-09-12T00:59:06.782Z,1.00
2022-09-12T01:00:09.654Z,1.29
2022-09-12T01:01:12.856Z,1.24
2022-09-12T01:02:15.965Z,0.90
2022-09-12T01:03:18.801Z,1.26
2022-09-12T01:04:21.904Z,1.53
2022-09-12T01:05:24.746Z,0.97
2022-09-12T01:06:27.519Z,1.14
2022-09-12T01:07:30.706Z,1.13
2022-09-12T01:08:33.687Z,1.21
2022-09-12T01:09:36.683Z,1.78
2022-09-12T01:10:39.223Z,1.28
2022-09-12T01:11:42.304Z,1.02
2022-09-12T01:12:45.485Z,0.96
2022-09-12T01:13:48.461Z,1.11
2022-09-12T01:14:51.240Z,1.18
2022-09-12T01:15:54.015Z,1.35
2022-09-12T01:16:57.186Z,1.05
2022-09-12T01:18:00.299Z,0.97
2022-09-12T01:19:02.942Z,0.99
2022-09-12T01:20:05.818Z,0.92
2022-09-12T01:21:08.687Z,0.98
2022-09-12T01:22:11.247Z,1.27
2022-09-12T01:23:14.129Z,1.35
2022-09-12T01:24:16.702Z,0.79
2022-09-12T01:25:19.403Z,1.08
2022-09-12T01:26:21.934Z,0.87
2022-09-12T01:27:25.025Z,1.30
2022-09-12T01:28:28.090Z,1.61
2022-09-12T01:29:31.069Z,1.55
2022-09-12T01:30:34.052Z,3.05
2022-09-12T01:31:36.822Z,1.14
2022-09-12T01:32:39.588Z,1.19
2022-09-12T01:33:42.807Z,1.16
2022-09-12T01:34:45.656Z,1.06
2022-09-12T01:35:48.517Z,1.58
2022-09-12T01:36:51.289Z,6.17
2022-09-12T01:37:53.961Z,0.99
2022-09-12T01:38:56.936Z,1.05
2022-09-12T01:39:59.755Z,1.21
2022-09-12T01:41:02.796Z,1.06
2022-09-12T01:42:05.890Z,0.96
2022-09-12T01:43:08.663Z,0.75
2022-09-12T01:44:12.343Z,0.90
2022-09-12T01:45:15.737Z,1.00
2022-09-12T01:46:19.104Z,0.87
2022-09-12T01:47:22.082Z,1.15
2022-09-12T01:48:25.267Z,2.32
2022-09-12T01:49:28.347Z,1.55
2022-09-12T01:50:31.115Z,1.29
2022-09-12T01:51:34.251Z,1.34
2022-09-12T01:52:37.385Z,1.09
2022-09-12T01:53:40.464Z,1.29
2022-09-12T01:54:43.130Z,0.92
2022-09-12T01:55:46.208Z,0.79
2022-09-12T01:56:48.994Z,0.72
2022-09-12T01:57:51.754Z,0.77
2022-09-12T01:58:54.429Z,0.97
2022-09-12T01:59:57.513Z,1.65
2022-09-12T02:01:00.796Z,0.86
2022-09-12T02:02:03.841Z,1.14
2022-09-12T02:03:06.639Z,1.18
2022-09-12T02:04:09.637Z,1.12
2022-09-12T02:05:12.801Z,1.07
2022-09-12T02:06:15.875Z,0.78
2022-09-12T02:07:19.075Z,1.25
2022-09-12T02:08:21.735Z,2.90
2022-09-12T02:09:24.914Z,3.02
2022-09-12T02:10:32.262Z,6.59
2022-09-12T02:11:32.609Z,7.33
2022-09-12T02:12:35.375Z,2.33
2022-09-12T02:13:38.049Z,2.64
2022-09-12T02:14:40.845Z,1.11
2022-09-12T02:15:44.988Z,1.07
2022-09-12T02:16:47.849Z,0.94
2022-09-12T02:17:50.470Z,1.02
2022-09-12T02:18:53.247Z,0.77
2022-09-12T02:19:56.227Z,0.90
2022-09-12T02:20:58.993Z,1.07
2022-09-12T02:22:01.972Z,0.90
2022-09-12T02:23:05.042Z,0.81
2022-09-12T02:24:07.625Z,0.80
2022-09-12T02:25:10.722Z,1.35
2022-09-12T02:26:13.989Z,4.54
2022-09-12T02:27:16.856Z,2.83
2022-09-12T02:28:19.827Z,0.82
2022-09-12T02:29:22.804Z,0.85
2022-09-12T02:30:25.926Z,1.19
2022-09-12T02:31:29.067Z,1.08
2022-09-12T02:32:31.838Z,1.60
2022-09-12T02:33:34.714Z,1.21
2022-09-12T02:34:37.490Z,1.07
2022-09-12T02:35:40.472Z,0.86
2022-09-12T02:36:43.346Z,1.07
2022-09-12T02:37:46.427Z,0.92
2022-09-12T02:38:48.961Z,1.00
2022-09-12T02:39:51.719Z,0.93
2022-09-12T02:40:54.669Z,0.83
2022-09-12T02:41:57.413Z,1.07
2022-09-12T02:43:00.286Z,0.86
2022-09-12T02:44:03.373Z,1.79
2022-09-12T02:45:05.919Z,3.04
2022-09-12T02:46:08.958Z,0.85
2022-09-12T02:47:12.289Z,1.08
2022-09-12T02:48:15.058Z,1.15
2022-09-12T02:49:17.629Z,1.29
2022-09-12T02:50:20.611Z,1.02
2022-09-12T02:51:23.895Z,0.95
2022-09-12T02:52:26.788Z,0.91
2022-09-12T02:53:29.326Z,1.17
2022-09-12T02:54:32.202Z,0.88
2022-09-12T02:55:35.188Z,0.78
2022-09-12T02:56:38.267Z,0.95
2022-09-12T02:57:41.353Z,1.08
2022-09-12T02:58:44.103Z,1.18
2022-09-12T02:59:47.000Z,1.06
2022-09-12T03:00:49.662Z,1.47
2022-09-12T03:01:52.403Z,0.88
2022-09-12T03:02:55.000Z,0.82
2022-09-12T03:03:57.769Z,1.02
2022-09-12T03:05:00.555Z,0.92
2022-09-12T03:06:03.446Z,1.04
2022-09-12T03:07:06.189Z,1.02
2022-09-12T03:08:08.861Z,0.83
2022-09-12T03:09:11.550Z,1.04
2022-09-12T03:10:14.510Z,0.96
2022-09-12T03:11:17.507Z,1.03
2022-09-12T03:12:20.258Z,1.08
2022-09-12T03:13:23.063Z,0.96
2022-09-12T03:14:26.115Z,0.88
2022-09-12T03:15:28.979Z,1.80
2022-09-12T03:16:34.717Z,0.95
2022-09-12T03:17:37.552Z,0.97
2022-09-12T03:18:40.020Z,0.92
2022-09-12T03:19:42.840Z,0.89
2022-09-12T03:20:45.709Z,0.92
2022-09-12T03:21:48.591Z,0.78
2022-09-12T03:22:51.458Z,0.97
2022-09-12T03:23:54.339Z,1.07
2022-09-12T03:24:57.323Z,0.64
2022-09-12T03:26:00.392Z,0.70
2022-09-12T03:27:06.353Z,0.97
2022-09-12T03:28:09.123Z,0.90
2022-09-12T03:29:12.088Z,0.75
2022-09-12T03:30:15.290Z,0.86
2022-09-12T03:31:18.458Z,1.09
2022-09-12T03:32:21.326Z,1.93
2022-09-12T03:33:25.789Z,6.81
2022-09-12T03:34:28.745Z,7.48
2022-09-12T03:35:35.065Z,8.85
2022-09-12T03:36:38.151Z,8.46
2022-09-12T03:37:41.263Z,3.62
2022-09-12T03:38:44.426Z,0.84
2022-09-12T03:39:47.473Z,0.82
2022-09-12T03:40:54.575Z,0.68
2022-09-12T03:41:54.568Z,1.09
2022-09-12T03:42:57.342Z,0.86
2022-09-12T03:44:00.121Z,1.02
2022-09-12T03:45:03.020Z,0.90
2022-09-12T03:46:05.624Z,0.72
2022-09-12T03:47:11.232Z,0.85
2022-09-12T03:48:13.045Z,1.17
2022-09-12T03:49:15.927Z,7.82
2022-09-12T03:50:19.511Z,12.65
2022-09-12T03:51:22.500Z,1.84
2022-09-12T03:52:25.153Z,1.25
2022-09-12T03:53:28.481Z,1.24
2022-09-12T03:54:32.283Z,0.99
2022-09-12T03:56:56.474Z,1.22
2022-09-12T03:58:00.283Z,0.93
2022-09-12T03:59:03.606Z,1.11
2022-09-12T04:00:06.803Z,1.05
2022-09-12T04:01:22.311Z,1.08
2022-09-12T04:02:25.365Z,0.88
2022-09-12T04:03:28.622Z,1.09
2022-09-12T04:04:32.218Z,1.61
2022-09-12T04:05:38.883Z,1.15
2022-09-12T04:06:42.159Z,0.83
2022-09-12T04:07:46.395Z,0.97
2022-09-12T04:08:59.211Z,1.17
2022-09-12T04:10:02.377Z,1.50
2022-09-12T04:11:15.773Z,1.44
2022-09-12T04:12:24.819Z,0.92
2022-09-12T04:13:27.988Z,0.97
2022-09-12T04:14:40.933Z,1.05
2022-09-12T04:15:43.704Z,1.05
2022-09-12T04:16:54.444Z,1.03
2022-09-12T04:18:00.426Z,0.90
2022-09-12T04:19:03.758Z,0.86
2022-09-12T04:20:06.831Z,1.01
2022-09-12T04:21:09.714Z,1.12
2022-09-12T04:22:12.475Z,1.05
2022-09-12T04:23:15.148Z,0.92
2022-09-12T04:24:18.046Z,0.90
2022-09-12T04:25:20.804Z,1.05
2022-09-12T04:26:23.669Z,0.78
2022-09-12T04:27:26.453Z,1.17
2022-09-12T04:28:29.364Z,0.81
2022-09-12T04:29:32.297Z,0.98
2022-09-12T04:30:35.230Z,1.07
2022-09-12T04:31:38.148Z,1.17
2022-09-12T04:32:40.928Z,1.21
2022-09-12T04:33:43.798Z,1.34
2022-09-12T04:34:46.597Z,1.08
2022-09-12T04:35:49.341Z,1.03
2022-09-12T04:36:52.224Z,1.41
2022-09-12T04:37:55.299Z,1.04
2022-09-12T04:38:58.426Z,0.88
2022-09-12T04:40:01.216Z,1.07
2022-09-12T04:41:04.531Z,0.98
2022-09-12T04:42:07.923Z,0.86
2022-09-12T04:43:14.385Z,1.07
2022-09-12T04:44:15.824Z,0.83
2022-09-12T04:45:18.899Z,0.85
2022-09-12T04:46:30.098Z,0.86
2022-09-12T04:47:33.049Z,1.33
2022-09-12T04:48:35.917Z,1.05
2022-09-12T04:49:38.802Z,1.16
2022-09-12T04:50:42.493Z,1.14
2022-09-12T04:51:45.361Z,0.87
2022-09-12T04:52:48.560Z,0.93
2022-09-12T04:53:51.417Z,0.92
2022-09-12T04:54:54.493Z,1.14
2022-09-12T04:55:57.588Z,1.26
2022-09-12T04:57:01.285Z,0.89
2022-09-12T04:58:04.587Z,0.75
2022-09-12T04:59:08.287Z,0.82
2022-09-12T05:00:11.450Z,0.91
2022-09-12T05:01:14.486Z,0.95
2022-09-12T05:02:18.074Z,0.90
2022-09-12T05:03:21.396Z,0.78
2022-09-12T05:04:24.474Z,0.90
2022-09-12T05:05:27.353Z,0.80
2022-09-12T05:06:30.230Z,0.85
2022-09-12T05:07:33.092Z,1.07
2022-09-12T05:08:36.048Z,0.82
2022-09-12T05:09:39.148Z,0.71
2022-09-12T05:10:41.823Z,0.82
2022-09-12T05:12:04.255Z,0.86
2022-09-12T05:12:50.834Z,0.69
2022-09-12T05:14:06.015Z,0.93
2022-09-12T05:15:09.289Z,0.84
2022-09-12T05:16:12.445Z,0.87
2022-09-12T05:17:15.368Z,0.87
2022-09-12T05:20:58.180Z,0.82
2022-09-12T05:22:01.155Z,0.92
2022-09-12T05:23:03.934Z,0.93
2022-09-12T05:24:07.728Z,1.11
2022-09-12T05:25:11.195Z,0.78
2022-09-12T05:26:17.473Z,0.82
2022-09-12T05:27:20.345Z,0.97
2022-09-12T05:28:23.133Z,0.93
2022-09-12T05:29:28.879Z,1.18
2022-09-12T05:30:31.620Z,0.91
2022-09-12T05:31:34.988Z,0.97
2022-09-12T05:32:48.018Z,0.80
2022-09-12T05:33:51.513Z,0.98
2022-09-12T05:34:57.764Z,0.88
2022-09-12T05:36:00.548Z,0.79
2022-09-12T05:37:03.314Z,0.88
2022-09-12T05:38:06.815Z,0.99
2022-09-12T05:39:09.889Z,0.74
2022-09-12T05:40:13.034Z,0.88
2022-09-12T05:41:29.051Z,0.94
2022-09-12T05:42:37.970Z,0.83
2022-09-12T05:43:41.177Z,0.87
2022-09-12T05:44:47.720Z,0.84
2022-09-12T05:45:57.828Z,0.76
2022-09-12T05:47:04.115Z,0.77
2022-09-12T05:48:07.283Z,0.72
2022-09-12T05:49:14.781Z,0.79
2022-09-12T05:50:21.039Z,0.69
2022-09-12T05:51:26.343Z,0.81
2022-09-12T05:52:29.838Z,0.84
2022-09-12T05:53:34.483Z,0.77
2022-09-12T05:54:39.003Z,0.78
2022-09-12T05:55:42.469Z,0.86
2022-09-12T05:56:45.444Z,0.82
2022-09-12T05:57:51.278Z,0.70
2022-09-12T05:59:02.544Z,0.78
2022-09-12T06:00:05.726Z,0.80
2022-09-12T06:01:14.564Z,0.88
2022-09-12T06:02:17.886Z,0.76
2022-09-12T06:03:20.724Z,0.96
2022-09-12T06:04:25.635Z,0.98
2022-09-12T06:05:28.917Z,0.93
2022-09-12T06:06:36.080Z,1.03
2022-09-12T06:07:38.999Z,0.91
2022-09-12T06:08:45.088Z,0.72
2022-09-12T06:09:49.114Z,0.83
2022-09-12T06:10:51.990Z,0.78
2022-09-12T06:11:54.955Z,0.71
2022-09-12T06:12:58.450Z,0.73
2022-09-12T06:14:01.642Z,0.77
2022-09-12T06:15:04.619Z,0.72
2022-09-12T06:16:08.105Z,0.76
2022-09-12T06:17:11.399Z,0.72
2022-09-12T06:18:14.250Z,0.74
2022-09-12T06:19:18.383Z,0.68
2022-09-12T06:20:21.870Z,0.64
2022-09-12T06:21:25.263Z,0.66
2022-09-12T06:22:28.629Z,0.84
2022-09-12T06:23:31.807Z,0.75
2022-09-12T06:24:34.904Z,0.75
2022-09-12T06:25:38.369Z,0.68
2022-09-12T06:26:41.871Z,0.82
2022-09-12T06:27:44.848Z,0.78
2022-09-12T06:28:47.952Z,0.82
2022-09-12T06:29:51.426Z,0.84
2022-09-12T06:30:54.544Z,0.63
2022-09-12T06:31:57.361Z,0.69
2022-09-12T06:33:00.153Z,0.87
2022-09-12T06:34:03.011Z,0.86
2022-09-12T06:35:06.723Z,0.88
2022-09-12T06:36:12.341Z,0.84
2022-09-12T06:37:17.278Z,0.84
2022-09-12T06:38:20.862Z,0.79
2022-09-12T06:39:24.558Z,0.79
2022-09-12T06:40:27.439Z,0.75
2022-09-12T06:41:30.316Z,0.90
2022-09-12T06:42:33.900Z,0.98
2022-09-12T06:43:37.607Z,0.81
2022-09-12T06:44:41.285Z,0.95
2022-09-12T06:45:44.596Z,0.92
2022-09-12T06:46:47.438Z,1.00
2022-09-12T06:47:50.839Z,1.01
2022-09-12T06:48:54.023Z,0.86
2022-09-12T06:49:57.715Z,1.15
2022-09-12T06:51:00.703Z,1.03
2022-09-12T06:52:03.702Z,0.99
2022-09-12T06:53:07.075Z,0.85
2022-09-12T06:54:11.479Z,0.80
2022-09-12T06:55:19.457Z,0.90
2022-09-12T06:56:19.173Z,1.03
2022-09-12T06:57:23.563Z,1.18
2022-09-12T06:58:27.489Z,1.10
2022-09-12T06:59:30.126Z,1.12
2022-09-12T07:00:33.426Z,1.16
2022-09-12T07:01:36.474Z,1.00
2022-09-12T07:02:46.935Z,0.95
2022-09-12T07:03:49.929Z,0.87
2022-09-12T07:04:52.791Z,0.93
2022-09-12T07:05:55.778Z,0.90
2022-09-12T07:06:59.160Z,0.88
2022-09-12T07:08:02.759Z,0.81
2022-09-12T07:09:05.730Z,0.91
2022-09-12T07:10:08.805Z,0.82
2022-09-12T07:11:14.147Z,0.90
2022-09-12T07:12:17.528Z,1.07
2022-09-12T07:13:20.607Z,0.92
2022-09-12T07:14:24.000Z,1.01
2022-09-12T07:15:31.202Z,0.88
2022-09-12T07:16:39.090Z,0.98
2022-09-12T07:17:42.132Z,0.86
2022-09-12T07:18:45.530Z,0.93
2022-09-12T07:19:49.324Z,1.18
2022-09-12T07:20:52.109Z,0.96
2022-09-12T07:21:58.504Z,0.88
2022-09-12T07:22:59.314Z,1.02
2022-09-12T07:24:02.178Z,1.22
2022-09-12T07:25:06.770Z,1.22
2022-09-12T07:26:10.493Z,1.13
2022-09-12T07:27:13.851Z,1.17
2022-09-12T07:28:17.546Z,1.17
2022-09-12T07:29:37.709Z,1.02
2022-09-12T07:30:25.992Z,0.95
2022-09-12T07:31:28.834Z,0.99
2022-09-12T07:32:31.723Z,1.02
2022-09-12T07:33:35.905Z,1.05
2022-09-12T07:34:39.102Z,0.99
2022-09-12T07:35:42.565Z,1.07
2022-09-12T07:36:46.110Z,0.98
2022-09-12T07:37:49.140Z,0.79
2022-09-12T07:38:55.615Z,0.93
2022-09-12T07:39:56.495Z,0.86
2022-09-12T07:40:59.620Z,0.95
2022-09-12T07:42:02.819Z,0.96
2022-09-12T07:43:06.168Z,0.88
2022-09-12T07:44:09.577Z,0.75
2022-09-12T07:45:13.266Z,0.90
2022-09-12T07:46:19.503Z,1.11
2022-09-12T07:47:23.430Z,0.93
2022-09-12T07:48:28.864Z,0.82
2022-09-12T07:49:31.830Z,0.99
2022-09-12T07:50:35.739Z,0.92
2022-09-12T07:51:38.724Z,0.87
2022-09-12T07:52:41.615Z,1.01
2022-09-12T07:53:45.696Z,0.93
2022-09-12T07:54:51.418Z,0.89
2022-09-12T07:55:54.709Z,0.91
2022-09-12T07:57:02.089Z,0.94
2022-09-12T07:58:05.687Z,0.96
2022-09-12T07:59:35.305Z,0.94
2022-09-12T08:00:22.793Z,1.03
2022-09-12T08:01:26.341Z,1.03
2022-09-12T08:02:30.044Z,0.82
2022-09-12T08:03:36.259Z,1.04
2022-09-12T08:04:39.324Z,1.02
2022-09-12T08:05:43.506Z,1.05
2022-09-12T08:06:47.060Z,1.10
2022-09-12T08:07:57.836Z,1.09
2022-09-12T08:09:01.264Z,0.93
2022-09-12T08:10:09.459Z,0.88
2022-09-12T08:11:15.055Z,1.28
2022-09-12T08:12:18.145Z,1.12
2022-09-12T08:13:21.263Z,1.34
2022-09-12T08:14:24.274Z,1.35
2022-09-12T08:15:27.632Z,1.18
2022-09-12T08:16:30.722Z,1.39
2022-09-12T08:17:33.989Z,1.25
2022-09-12T08:18:38.810Z,1.28
2022-09-12T08:19:42.307Z,1.49
2022-09-12T08:20:46.822Z,1.40
2022-09-12T08:21:49.735Z,1.56
2022-09-12T08:22:52.775Z,1.30
2022-09-12T08:23:55.650Z,1.34
2022-09-12T08:24:58.614Z,1.15
2022-09-12T08:26:12.650Z,1.39
2022-09-12T08:27:15.923Z,1.50
2022-09-12T08:28:19.220Z,1.47
2022-09-12T08:29:22.920Z,1.31
2022-09-12T08:30:27.036Z,1.32
2022-09-12T08:31:30.191Z,1.44
2022-09-12T08:32:33.408Z,1.68
2022-09-12T08:33:37.105Z,1.75
2022-09-12T08:34:40.248Z,1.71
2022-09-12T08:35:43.444Z,1.52
2022-09-12T08:36:47.410Z,1.50
2022-09-12T08:37:50.121Z,1.49
2022-09-12T08:38:57.381Z,1.58
2022-09-12T08:40:06.025Z,1.39
2022-09-12T08:41:11.234Z,1.45
2022-09-12T08:42:14.120Z,1.45
2022-09-12T08:43:17.360Z,1.28
2022-09-12T08:44:20.366Z,1.76
2022-09-12T08:45:23.858Z,1.63
2022-09-12T08:46:27.001Z,1.63
2022-09-12T08:47:33.307Z,1.64
2022-09-12T08:48:36.570Z,1.82
2022-09-12T08:49:39.651Z,1.75
2022-09-12T08:50:49.983Z,1.64
2022-09-12T08:51:53.273Z,1.73
2022-09-12T08:52:56.460Z,1.83
2022-09-12T08:53:59.561Z,1.56
2022-09-12T08:55:02.429Z,1.50
2022-09-12T08:56:05.593Z,1.44
2022-09-12T08:57:09.085Z,1.40
2022-09-12T08:58:12.520Z,1.52
2022-09-12T08:59:15.760Z,1.41
2022-09-12T09:00:18.798Z,1.28
2022-09-12T09:01:21.916Z,1.30
2022-09-12T09:02:24.872Z,1.24
2022-09-12T09:03:27.570Z,1.30
2022-09-12T09:04:30.655Z,1.35
2022-09-12T09:05:36.699Z,1.32
2022-09-12T09:06:42.014Z,1.19
2022-09-12T09:07:45.006Z,1.35
2022-09-12T09:08:48.227Z,1.49
2022-09-12T09:09:51.143Z,1.24
2022-09-12T09:10:54.143Z,1.28
2022-09-12T09:13:17.532Z,1.29
2022-09-12T09:14:21.082Z,1.58
2022-09-12T09:15:24.083Z,1.20
2022-09-12T09:16:26.964Z,1.50
2022-09-12T09:17:30.442Z,1.97
2022-09-12T09:18:33.660Z,2.91
2022-09-12T09:19:37.387Z,3.42
2022-09-12T09:20:41.055Z,4.47
2022-09-12T09:21:46.562Z,4.31
2022-09-12T09:22:49.519Z,5.66
2022-09-12T09:23:52.933Z,5.28
2022-09-12T09:24:55.896Z,4.46
2022-09-12T09:25:58.972Z,4.18
2022-09-12T09:27:01.951Z,3.46
2022-09-12T09:28:05.032Z,2.28
2022-09-12T09:29:08.426Z,2.01
2022-09-12T09:30:12.004Z,1.83
2022-09-12T09:31:15.344Z,1.79
2022-09-12T09:32:19.481Z,2.10
2022-09-12T09:33:24.710Z,2.24
2022-09-12T09:34:29.723Z,2.28
2022-09-12T09:35:36.513Z,2.12
2022-09-12T09:36:38.770Z,1.85
2022-09-12T09:37:42.455Z,1.96
2022-09-12T09:38:45.574Z,1.79
2022-09-12T09:39:48.567Z,1.82
2022-09-12T09:40:51.811Z,1.75
2022-09-12T09:41:58.385Z,1.61
2022-09-12T09:43:01.844Z,1.88
2022-09-12T09:44:08.842Z,1.86
2022-09-12T09:45:12.305Z,2.09
2022-09-12T09:46:15.653Z,2.31
2022-09-12T09:47:19.304Z,2.19
2022-09-12T09:48:23.798Z,2.30
2022-09-12T09:49:26.898Z,2.48
2022-09-12T09:50:30.270Z,2.74
2022-09-12T09:51:34.669Z,2.78
2022-09-12T09:52:39.172Z,2.44
2022-09-12T09:53:47.689Z,2.43
2022-09-12T09:54:51.089Z,2.01
2022-09-12T09:55:54.174Z,2.10
2022-09-12T09:56:57.858Z,2.14
2022-09-12T09:58:05.268Z,2.54
2022-09-12T09:59:08.361Z,2.24
2022-09-12T10:00:11.913Z,2.35
2022-09-12T10:01:21.595Z,2.12
2022-09-12T10:02:24.977Z,1.71
2022-09-12T10:03:28.429Z,1.67
2022-09-12T10:04:35.975Z,2.32
2022-09-12T10:05:38.269Z,2.23
2022-09-12T10:06:41.434Z,2.63
2022-09-12T10:07:45.025Z,2.83
2022-09-12T10:08:48.245Z,2.40
2022-09-12T10:09:51.396Z,3.25
2022-09-12T10:10:54.384Z,3.46
2022-09-12T10:11:57.464Z,3.45
2022-09-12T10:13:04.238Z,3.47
2022-09-12T10:14:06.873Z,3.96
2022-09-12T10:15:09.669Z,3.92
2022-09-12T10:16:13.060Z,3.77
2022-09-12T10:17:16.836Z,4.53
2022-09-12T10:18:20.011Z,4.70
2022-09-12T10:19:22.812Z,4.23
2022-09-12T10:20:25.699Z,3.94
2022-09-12T10:21:28.867Z,4.03
2022-09-12T10:22:32.605Z,3.88
2022-09-12T10:23:35.768Z,3.95
2022-09-12T10:24:39.227Z,3.35
2022-09-12T10:25:42.205Z,2.92
2022-09-12T10:26:45.365Z,2.81
2022-09-12T10:27:50.728Z,2.65
2022-09-12T10:28:54.127Z,2.93
2022-09-12T10:29:57.776Z,3.27
2022-09-12T10:31:00.878Z,3.74
2022-09-12T10:32:03.860Z,3.70
2022-09-12T10:33:06.810Z,3.47
2022-09-12T10:34:09.723Z,3.48
2022-09-12T10:35:12.691Z,3.25
2022-09-12T10:36:16.072Z,3.26
2022-09-12T10:37:19.432Z,2.84
2022-09-12T10:38:22.627Z,2.87
2022-09-12T10:39:25.706Z,3.45
2022-09-12T10:40:28.893Z,3.17
2022-09-12T10:41:32.852Z,2.95
2022-09-12T10:42:35.922Z,3.01
2022-09-12T10:43:42.131Z,2.59
2022-09-12T10:44:46.753Z,2.83
2022-09-12T10:45:50.033Z,2.83
2022-09-12T10:46:53.004Z,3.10
2022-09-12T10:47:56.594Z,3.21
2022-09-12T10:48:59.377Z,3.08
2022-09-12T10:50:02.634Z,3.03
2022-09-12T10:51:07.722Z,3.31
2022-09-12T10:52:10.764Z,3.55
2022-09-12T10:53:16.737Z,3.55
2022-09-12T10:54:26.515Z,3.16
2022-09-12T10:55:32.594Z,3.28
2022-09-12T10:56:36.209Z,3.02
2022-09-12T10:57:39.338Z,3.14
2022-09-12T10:58:42.145Z,2.85
2022-09-12T10:59:47.386Z,2.39
2022-09-12T11:00:50.630Z,2.48
2022-09-12T11:01:54.181Z,2.52
2022-09-12T11:02:57.723Z,2.55
2022-09-12T11:04:01.399Z,2.49
2022-09-12T11:05:04.724Z,2.25
2022-09-12T11:06:09.212Z,2.10
2022-09-12T11:07:12.379Z,2.44
2022-09-12T11:08:20.104Z,2.28
2022-09-12T11:09:26.040Z,2.32
2022-09-12T11:10:36.297Z,2.35
2022-09-12T11:11:39.971Z,2.35
2022-09-12T11:12:43.815Z,2.35
2022-09-12T11:13:48.371Z,2.26
2022-09-12T11:14:51.166Z,2.47
2022-09-12T11:15:54.289Z,2.32
2022-09-12T11:16:57.120Z,2.41
2022-09-12T11:17:59.663Z,2.51
2022-09-12T11:19:03.586Z,2.50
2022-09-12T11:20:07.009Z,2.36
2022-09-12T11:21:10.567Z,2.12
2022-09-12T11:22:13.469Z,2.36
2022-09-12T11:23:16.289Z,2.58
2022-09-12T11:24:19.797Z,2.35
2022-09-12T11:25:27.576Z,2.08
2022-09-12T11:26:31.801Z,2.07
2022-09-12T11:27:35.196Z,2.39
2022-09-12T11:28:38.163Z,2.14
2022-09-12T11:29:41.152Z,2.38
2022-09-12T11:30:44.551Z,2.18
2022-09-12T11:31:47.814Z,2.13
2022-09-12T11:32:51.586Z,2.28
2022-09-12T11:33:56.799Z,2.46
2022-09-12T11:34:59.396Z,2.39
2022-09-12T11:36:02.464Z,2.29
2022-09-12T11:37:09.849Z,2.28
2022-09-12T11:38:10.151Z,2.31
2022-09-12T11:39:13.558Z,1.94
2022-09-12T11:40:17.131Z,2.22
2022-09-12T11:41:20.218Z,2.19
2022-09-12T11:42:24.014Z,1.80
2022-09-12T11:43:27.104Z,1.95
2022-09-12T11:44:30.482Z,2.03
2022-09-12T11:45:37.607Z,1.92
2022-09-12T11:46:41.138Z,1.88
2022-09-12T11:47:44.014Z,1.86
2022-09-12T11:48:47.144Z,1.75
2022-09-12T11:49:52.142Z,1.97
2022-09-12T11:50:55.205Z,1.90
2022-09-12T11:51:58.892Z,1.70
2022-09-12T11:53:02.081Z,2.14
2022-09-12T11:54:05.674Z,1.72
2022-09-12T11:55:09.383Z,1.93
2022-09-12T11:56:12.847Z,2.09
2022-09-12T11:57:16.539Z,1.93
2022-09-12T11:58:20.236Z,2.26
2022-09-12T11:59:24.649Z,2.07
2022-09-12T12:00:27.952Z,2.09
2022-09-12T12:01:38.840Z,1.92
2022-09-12T12:02:39.098Z,1.92
2022-09-12T12:03:42.338Z,2.17
2022-09-12T12:04:45.994Z,2.02
2022-09-12T12:05:51.848Z,2.08
2022-09-12T12:06:55.127Z,1.96
2022-09-12T12:07:58.817Z,2.02
2022-09-12T12:09:02.093Z,2.20
2022-09-12T12:10:05.385Z,1.97
2022-09-12T12:11:08.673Z,1.98
2022-09-12T12:12:12.164Z,2.05
2022-09-12T12:13:19.345Z,2.04
2022-09-12T12:14:22.394Z,2.00
2022-09-12T12:15:31.967Z,1.90
2022-09-12T12:16:34.875Z,1.91
2022-09-12T12:17:38.490Z,1.85
2022-09-12T12:18:41.788Z,2.07
2022-09-12T12:19:45.685Z,1.87
2022-09-12T12:20:48.966Z,1.73
2022-09-12T12:21:52.248Z,1.70
2022-09-12T12:22:54.928Z,1.78
2022-09-12T12:23:58.224Z,1.79
2022-09-12T12:25:01.901Z,1.84
2022-09-12T12:26:05.187Z,1.88
2022-09-12T12:27:11.849Z,1.78
2022-09-12T12:28:16.049Z,1.72
2022-09-12T12:29:19.440Z,1.73
2022-09-12T12:30:22.886Z,1.83
2022-09-12T12:31:26.201Z,1.80
2022-09-12T12:32:29.391Z,1.84
2022-09-12T12:33:32.894Z,1.77
2022-09-12T12:34:36.071Z,1.90
2022-09-12T12:35:39.899Z,1.87
2022-09-12T12:36:44.146Z,1.86
2022-09-12T12:37:47.274Z,1.84
2022-09-12T12:38:54.809Z,1.75
2022-09-12T12:39:57.843Z,1.94
2022-09-12T12:41:00.786Z,1.95
2022-09-12T12:42:03.676Z,1.82
2022-09-12T12:43:06.638Z,1.68
2022-09-12T12:44:09.720Z,1.62
2022-09-12T12:45:12.944Z,1.72
2022-09-12T12:46:16.037Z,1.71
2022-09-12T12:47:19.268Z,1.87
2022-09-12T12:48:25.627Z,1.83
2022-09-12T12:49:28.923Z,2.01
2022-09-12T12:50:32.712Z,1.65
2022-09-12T12:51:38.139Z,1.80
2022-09-12T12:52:41.443Z,1.77
2022-09-12T12:53:44.743Z,1.82
2022-09-12T12:54:49.743Z,2.06
2022-09-12T12:55:53.349Z,1.81
2022-09-12T12:56:57.211Z,1.86
2022-09-12T12:58:02.372Z,1.89
2022-09-12T12:59:05.081Z,1.77
2022-09-12T13:00:08.104Z,1.91
2022-09-12T13:01:11.460Z,1.95
2022-09-12T13:02:18.512Z,1.68
2022-09-12T13:03:21.740Z,1.61
2022-09-12T13:04:24.725Z,1.71
2022-09-12T13:05:28.126Z,1.52
2022-09-12T13:06:31.890Z,1.64
2022-09-12T13:07:37.016Z,1.41
2022-09-12T13:08:40.306Z,1.49
2022-09-12T13:09:43.489Z,1.36
2022-09-12T13:10:48.472Z,1.52
2022-09-12T13:11:50.981Z,1.96
2022-09-12T13:12:54.369Z,1.40
2022-09-12T13:13:57.656Z,1.34
2022-09-12T13:15:00.944Z,1.40
2022-09-12T13:16:07.867Z,1.47
2022-09-12T13:17:14.263Z,1.46
2022-09-12T13:18:18.187Z,1.31
2022-09-12T13:19:21.547Z,1.29
2022-09-12T13:20:28.267Z,1.45
2022-09-12T13:21:30.060Z,1.33
2022-09-12T13:22:33.367Z,1.19
2022-09-12T13:23:36.670Z,1.17
2022-09-12T13:24:41.449Z,1.34
2022-09-12T13:25:44.939Z,1.41
2022-09-12T13:26:48.432Z,1.36
2022-09-12T13:27:51.809Z,1.32
2022-09-12T13:28:55.459Z,1.44
2022-09-12T13:29:59.626Z,1.33
2022-09-12T13:31:02.647Z,1.43
2022-09-12T13:32:05.784Z,1.45
2022-09-12T13:33:09.485Z,1.55
2022-09-12T13:34:12.857Z,1.34
2022-09-12T13:35:16.135Z,1.20
2022-09-12T13:36:20.877Z,1.14
2022-09-12T13:37:24.565Z,1.13
2022-09-12T13:38:30.731Z,1.28
2022-09-12T13:39:34.524Z,1.25
2022-09-12T13:40:37.881Z,1.27
2022-09-12T13:41:41.160Z,1.10
2022-09-12T13:42:44.653Z,1.07
2022-09-12T13:43:48.467Z,1.16
2022-09-12T13:44:51.642Z,1.10
2022-09-12T13:46:00.114Z,1.06
2022-09-12T13:47:03.954Z,1.07
2022-09-12T13:48:07.024Z,1.09
2022-09-12T13:49:10.226Z,1.15
2022-09-12T13:50:13.172Z,1.11
2022-09-12T13:51:16.355Z,1.23
2022-09-12T13:52:19.428Z,1.02
2022-09-12T13:53:22.512Z,1.05
2022-09-12T13:54:26.311Z,1.12
2022-09-12T13:55:29.735Z,1.14
2022-09-12T13:56:32.771Z,1.06
2022-09-12T13:57:35.852Z,1.43
2022-09-12T13:58:39.241Z,1.49
2022-09-12T13:59:42.752Z,1.14
2022-09-12T14:00:46.743Z,1.01
2022-09-12T14:01:49.874Z,1.26
2022-09-12T14:02:52.823Z,1.30
2022-09-12T14:03:58.822Z,1.32
2022-09-12T14:05:00.487Z,1.28
2022-09-12T14:06:03.980Z,1.16
2022-09-12T14:07:07.360Z,1.03
2022-09-12T14:08:10.551Z,1.22
2022-09-12T14:09:13.826Z,1.19
2022-09-12T14:10:18.553Z,1.28
2022-09-12T14:11:21.625Z,1.18
2022-09-12T14:12:26.545Z,1.42
2022-09-12T14:13:30.429Z,1.42